createdAt,value
2023-02-04T00:00:26.804Z,100.00
2023-02-04T00:02:54.313Z,100.00
2023-02-04T00:05:21.987Z,100.00
2023-02-04T00:07:49.400Z,100.00
2023-02-04T00:10:16.816Z,100.00
2023-02-04T00:12:44.082Z,100.00
2023-02-04T00:15:11.553Z,100.00
2023-02-04T00:17:39.559Z,100.00
2023-02-04T00:20:07.180Z,100.00
2023-02-04T00:22:34.500Z,100.00
2023-02-04T00:25:01.877Z,100.00
2023-02-04T00:27:29.461Z,100.00
2023-02-04T00:29:57.680Z,100.00
2023-02-04T00:32:25.290Z,100.00
2023-02-04T00:34:54.990Z,100.00
2023-02-04T00:37:22.496Z,100.00
2023-02-04T00:39:50.941Z,100.00
2023-02-04T00:42:18.247Z,100.00
2023-02-04T00:44:45.680Z,100.00
2023-02-04T00:47:13.035Z,100.00
2023-02-04T00:49:40.427Z,100.00
2023-02-04T00:52:07.818Z,100.00
2023-02-04T00:54:35.345Z,100.00
2023-02-04T00:57:04.098Z,100.00
2023-02-04T00:59:31.465Z,100.00
2023-02-04T01:01:58.876Z,100.00
2023-02-04T01:04:28.054Z,100.00
2023-02-04T01:06:55.448Z,100.00
2023-02-04T01:09:22.787Z,100.00
2023-02-04T01:11:52.299Z,100.00
2023-02-04T01:14:20.116Z,100.00
2023-02-04T01:16:47.725Z,100.00
2023-02-04T01:19:15.052Z,100.00
2023-02-04T01:21:42.597Z,100.00
2023-02-04T01:24:13.275Z,100.00
2023-02-04T01:27:04.075Z,100.00
2023-02-04T01:29:32.780Z,100.00
2023-02-04T01:32:00.174Z,100.00
2023-02-04T01:34:27.537Z,100.00
2023-02-04T01:36:54.801Z,100.00
2023-02-04T01:39:22.119Z,100.00
2023-02-04T01:41:49.550Z,100.00
2023-02-04T01:44:17.016Z,100.00
2023-02-04T01:46:44.435Z,100.00
2023-02-04T01:49:12.146Z,100.00
2023-02-04T01:51:39.856Z,100.00
2023-02-04T01:54:12.023Z,100.00
2023-02-04T01:56:40.874Z,100.00
2023-02-04T01:59:16.443Z,100.00
2023-02-04T02:01:49.114Z,100.00
2023-02-04T02:04:28.299Z,100.00
2023-02-04T02:06:58.944Z,100.00
2023-02-04T02:09:27.667Z,100.00
2023-02-04T02:11:55.083Z,100.00
2023-02-04T02:14:22.859Z,100.00
2023-02-04T02:16:51.220Z,100.00
2023-02-04T02:19:29.772Z,100.00
2023-02-04T02:22:05.372Z,100.00
2023-02-04T02:24:34.993Z,100.00
2023-02-04T02:27:07.321Z,100.00
2023-02-04T02:29:35.757Z,100.00
2023-02-04T02:32:03.402Z,100.00
2023-02-04T02:34:31.512Z,100.00
2023-02-04T02:37:00.516Z,100.00
2023-02-04T02:39:28.285Z,100.00
2023-02-04T02:41:57.156Z,100.00
2023-02-04T02:44:26.445Z,100.00
2023-02-04T02:46:54.928Z,100.00
2023-02-04T02:49:22.772Z,100.00
2023-02-04T02:51:50.148Z,100.00
2023-02-04T02:54:44.047Z,100.00
2023-02-04T02:57:20.574Z,100.00
2023-02-04T02:59:48.144Z,100.00
2023-02-04T03:02:22.044Z,100.00
2023-02-04T03:04:56.729Z,100.00
2023-02-04T03:07:27.492Z,100.00
2023-02-04T03:09:54.947Z,100.00
2023-02-04T03:12:22.268Z,100.00
2023-02-04T03:14:49.865Z,100.00
2023-02-04T03:17:17.580Z,100.00
2023-02-04T03:19:47.220Z,100.00
2023-02-04T03:22:15.027Z,100.00
2023-02-04T03:24:42.602Z,100.00
2023-02-04T03:27:10.543Z,100.00
2023-02-04T03:29:43.732Z,100.00
2023-02-04T03:32:11.665Z,100.00
2023-02-04T03:34:39.017Z,100.00
2023-02-04T03:37:06.392Z,100.00
2023-02-04T03:39:33.809Z,100.00
2023-02-04T03:42:01.116Z,100.00
2023-02-04T03:44:29.585Z,100.00
2023-02-04T03:46:57.047Z,100.00
2023-02-04T03:49:24.826Z,100.00
2023-02-04T03:51:52.119Z,100.00
2023-02-04T03:54:19.441Z,100.00
2023-02-04T03:56:46.984Z,100.00
2023-02-04T03:59:14.334Z,100.00
2023-02-04T04:01:41.811Z,100.00
2023-02-04T04:04:09.205Z,100.00
2023-02-04T04:06:36.493Z,100.00
2023-02-04T04:09:04.927Z,100.00
2023-02-04T04:11:32.252Z,100.00
2023-02-04T04:14:01.176Z,100.00
2023-02-04T04:16:29.042Z,100.00
2023-02-04T04:18:56.576Z,100.00
2023-02-04T04:21:27.093Z,100.00
2023-02-04T04:23:54.478Z,100.00
2023-02-04T04:26:21.736Z,100.00
2023-02-04T04:28:49.197Z,100.00
2023-02-04T04:31:16.589Z,100.00
2023-02-04T04:33:43.948Z,100.00
2023-02-04T04:36:12.112Z,100.00
2023-02-04T04:38:39.486Z,100.00
2023-02-04T04:41:06.836Z,100.00
2023-02-04T04:43:34.166Z,100.00
2023-02-04T04:46:01.491Z,100.00
2023-02-04T04:48:28.846Z,100.00
2023-02-04T04:50:56.261Z,100.00
2023-02-04T04:53:23.720Z,100.00
2023-02-04T04:55:51.036Z,100.00
2023-02-04T04:58:18.396Z,100.00
2023-02-04T05:00:45.750Z,100.00
2023-02-04T05:03:13.093Z,100.00
2023-02-04T05:05:41.410Z,100.00
2023-02-04T05:08:13.878Z,100.00
2023-02-04T05:10:41.740Z,100.00
2023-02-04T05:13:09.491Z,100.00
2023-02-04T05:15:36.908Z,100.00
2023-02-04T05:18:04.569Z,100.00
2023-02-04T05:20:32.328Z,100.00
2023-02-04T05:23:01.285Z,100.00
2023-02-04T05:25:29.068Z,100.00
2023-02-04T05:27:56.489Z,100.00
2023-02-04T05:30:23.889Z,100.00
2023-02-04T05:32:51.214Z,100.00
2023-02-04T05:35:18.653Z,100.00
2023-02-04T05:37:46.040Z,100.00
2023-02-04T05:40:14.025Z,100.00
2023-02-04T05:42:42.224Z,100.00
2023-02-04T05:45:15.027Z,100.00
2023-02-04T05:47:42.644Z,100.00
2023-02-04T05:50:10.921Z,100.00
2023-02-04T05:52:38.875Z,100.00
2023-02-04T05:55:07.068Z,100.00
2023-02-04T05:57:34.373Z,100.00
2023-02-04T06:00:01.739Z,100.00
2023-02-04T06:02:39.498Z,100.00
2023-02-04T06:05:07.116Z,100.00
2023-02-04T06:07:34.544Z,100.00
2023-02-04T06:10:01.924Z,100.00
2023-02-04T06:12:29.266Z,100.00
2023-02-04T06:14:56.737Z,100.00
2023-02-04T06:17:24.048Z,100.00
2023-02-04T06:19:51.413Z,100.00
2023-02-04T06:22:18.781Z,100.00
2023-02-04T06:24:47.465Z,100.00
2023-02-04T06:27:23.239Z,100.00
2023-02-04T06:29:53.174Z,100.00
2023-02-04T06:32:21.685Z,100.00
2023-02-04T06:34:49.619Z,100.00
2023-02-04T06:37:17.259Z,100.00
2023-02-04T06:39:44.658Z,100.00
2023-02-04T06:42:13.417Z,100.00
2023-02-04T06:44:40.861Z,100.00
2023-02-04T06:47:08.285Z,100.00
2023-02-04T06:49:35.650Z,100.00
2023-02-04T06:52:03.041Z,100.00
2023-02-04T06:54:30.336Z,100.00
2023-02-04T06:57:03.781Z,100.00
2023-02-04T06:59:33.105Z,100.00
2023-02-04T07:02:00.463Z,100.00
2023-02-04T07:04:27.823Z,100.00
2023-02-04T07:06:57.647Z,100.00
2023-02-04T07:09:25.045Z,100.00
2023-02-04T07:11:52.384Z,100.00
2023-02-04T07:14:20.136Z,100.00
2023-02-04T07:16:47.591Z,100.00
2023-02-04T07:19:15.165Z,100.00
2023-02-04T07:21:42.516Z,100.00
2023-02-04T07:24:09.876Z,100.00
2023-02-04T07:26:37.190Z,100.00
2023-02-04T07:29:05.815Z,100.00
2023-02-04T07:31:34.469Z,100.00
2023-02-04T07:34:01.896Z,100.00
2023-02-04T07:36:29.285Z,100.00
2023-02-04T07:38:56.553Z,100.00
2023-02-04T07:41:24.000Z,96.46
2023-02-04T07:43:51.240Z,96.27
2023-02-04T07:46:18.591Z,97.04
2023-02-04T07:48:45.952Z,96.16
2023-02-04T07:51:13.367Z,95.87
2023-02-04T07:53:40.728Z,95.28
2023-02-04T07:56:08.097Z,94.10
2023-02-04T07:58:35.437Z,93.55
2023-02-04T08:01:02.993Z,92.30
2023-02-04T08:03:30.264Z,89.69
2023-02-04T08:05:57.679Z,89.62
2023-02-04T08:08:25.053Z,92.12
2023-02-04T08:10:52.441Z,90.20
2023-02-04T08:13:19.785Z,90.21
2023-02-04T08:15:47.222Z,88.35
2023-02-04T08:18:14.586Z,87.31
2023-02-04T08:20:41.929Z,87.19
2023-02-04T08:23:10.392Z,86.53
2023-02-04T08:25:37.742Z,86.21
2023-02-04T08:28:05.149Z,83.05
2023-02-04T08:30:32.936Z,82.14
2023-02-04T08:33:00.446Z,79.71
2023-02-04T08:35:27.852Z,78.19
2023-02-04T08:37:55.146Z,74.81
2023-02-04T08:40:22.637Z,71.99
2023-02-04T08:42:49.988Z,68.31
2023-02-04T08:45:18.041Z,69.40
2023-02-04T08:47:45.337Z,72.04
2023-02-04T08:50:13.097Z,73.47
2023-02-04T08:52:40.384Z,75.19
2023-02-04T08:55:08.630Z,77.82
2023-02-04T08:57:36.004Z,78.89
2023-02-04T09:00:04.287Z,79.66
2023-02-04T09:02:31.693Z,77.71
2023-02-04T09:04:59.110Z,76.62
2023-02-04T09:07:26.386Z,75.27
2023-02-04T09:09:53.720Z,73.88
2023-02-04T09:12:20.977Z,72.95
2023-02-04T09:14:48.407Z,70.93
2023-02-04T09:17:15.706Z,66.30
2023-02-04T09:19:43.055Z,62.91
2023-02-04T09:22:11.599Z,62.71
2023-02-04T09:24:39.186Z,61.57
2023-02-04T09:27:06.627Z,63.59
2023-02-04T09:29:34.023Z,60.44
2023-02-04T09:32:01.371Z,59.30
2023-02-04T09:34:28.784Z,60.57
2023-02-04T09:36:56.099Z,60.22
2023-02-04T09:39:23.547Z,58.36
2023-02-04T09:41:53.897Z,58.50
2023-02-04T09:44:24.734Z,59.34
2023-02-04T09:46:55.699Z,59.31
2023-02-04T09:49:23.836Z,59.36
2023-02-04T09:51:51.787Z,60.08
2023-02-04T09:54:22.750Z,60.97
2023-02-04T09:56:53.162Z,60.38
2023-02-04T09:59:27.423Z,65.95
2023-02-04T10:02:01.359Z,65.57
2023-02-04T10:04:29.182Z,70.00
2023-02-04T10:07:00.150Z,71.81
2023-02-04T10:09:27.657Z,70.78
2023-02-04T10:11:55.072Z,72.46
2023-02-04T10:14:23.806Z,73.34
2023-02-04T10:16:59.394Z,71.85
2023-02-04T10:19:29.358Z,74.24
2023-02-04T10:21:57.156Z,72.53
2023-02-04T10:24:30.633Z,72.74
2023-02-04T10:27:12.233Z,72.28
2023-02-04T10:29:42.244Z,74.75
2023-02-04T10:32:26.937Z,72.67
2023-02-04T10:34:59.380Z,74.33
2023-02-04T10:37:26.784Z,75.11
2023-02-04T10:39:54.201Z,76.03
2023-02-04T10:42:24.556Z,76.01
2023-02-04T10:44:52.802Z,76.96
2023-02-04T10:47:22.511Z,73.48
2023-02-04T10:49:56.108Z,75.04
2023-02-04T10:52:33.870Z,77.73
2023-02-04T10:55:03.907Z,77.92
2023-02-04T10:57:37.410Z,77.03
2023-02-04T11:00:14.560Z,78.38
2023-02-04T11:03:06.582Z,77.96
2023-02-04T11:05:36.532Z,78.11
2023-02-04T11:08:21.717Z,75.00
2023-02-04T11:10:56.890Z,75.98
2023-02-04T11:13:42.648Z,77.91
2023-02-04T11:16:19.080Z,78.02
2023-02-04T11:18:52.449Z,77.33
2023-02-04T11:21:34.792Z,74.35
2023-02-04T11:24:24.122Z,74.31
2023-02-04T11:26:54.118Z,76.98
2023-02-04T11:29:35.936Z,77.59
2023-02-04T11:32:29.618Z,76.48
2023-02-04T11:35:28.606Z,76.47
2023-02-04T11:37:56.939Z,75.27
2023-02-04T11:40:29.312Z,74.92
2023-02-04T11:43:12.756Z,75.78
2023-02-04T11:45:41.184Z,75.15
2023-02-04T11:48:21.453Z,76.19
2023-02-04T11:50:56.876Z,75.33
2023-02-04T11:53:28.615Z,74.05
2023-02-04T11:55:55.901Z,76.23
2023-02-04T11:58:26.057Z,76.10
2023-02-04T12:00:53.510Z,75.02
2023-02-04T12:03:26.730Z,73.10
2023-02-04T12:05:57.233Z,75.11
2023-02-04T12:08:24.716Z,73.83
2023-02-04T12:11:00.311Z,75.34
2023-02-04T12:13:30.383Z,75.32
2023-02-04T12:16:04.159Z,73.51
2023-02-04T12:18:33.900Z,72.37
2023-02-04T12:21:04.415Z,71.54
2023-02-04T12:23:31.824Z,70.83
2023-02-04T12:25:59.805Z,68.60
2023-02-04T12:28:30.790Z,68.51
2023-02-04T12:30:58.164Z,68.01
2023-02-04T12:33:26.024Z,68.84
2023-02-04T12:35:53.566Z,68.64
2023-02-04T12:38:21.907Z,69.07
2023-02-04T12:40:52.672Z,69.91
2023-02-04T12:43:20.000Z,70.07
2023-02-04T12:45:49.779Z,68.88
2023-02-04T12:48:17.433Z,70.73
2023-02-04T12:50:45.880Z,71.30
2023-02-04T12:53:13.182Z,71.76
2023-02-04T12:55:40.999Z,70.40
2023-02-04T12:58:08.428Z,70.19
2023-02-04T13:00:35.905Z,68.94
2023-02-04T13:03:03.568Z,69.31
2023-02-04T13:05:31.610Z,70.91
2023-02-04T13:08:02.403Z,70.07
2023-02-04T13:10:29.704Z,68.54
2023-02-04T13:12:57.108Z,69.49
2023-02-04T13:15:24.376Z,69.85
2023-02-04T13:17:51.769Z,67.30
2023-02-04T13:20:21.694Z,67.98
2023-02-04T13:22:49.015Z,67.59
2023-02-04T13:25:16.450Z,66.35
2023-02-04T13:27:43.824Z,66.71
2023-02-04T13:30:13.655Z,65.68
2023-02-04T13:32:41.921Z,66.12
2023-02-04T13:35:09.492Z,65.21
2023-02-04T13:37:38.207Z,66.67
2023-02-04T13:40:07.962Z,65.82
2023-02-04T13:42:35.713Z,64.61
2023-02-04T13:45:06.558Z,65.33
2023-02-04T13:47:33.953Z,65.03
2023-02-04T13:50:01.274Z,63.73
2023-02-04T13:52:28.645Z,63.23
2023-02-04T13:54:56.653Z,64.57
2023-02-04T13:57:26.296Z,66.16
2023-02-04T13:59:54.574Z,65.71
2023-02-04T14:02:23.979Z,66.02
2023-02-04T14:04:51.349Z,66.27
2023-02-04T14:07:18.930Z,66.05
2023-02-04T14:09:48.284Z,66.42
2023-02-04T14:12:15.777Z,66.22
2023-02-04T14:14:43.092Z,65.81
2023-02-04T14:17:10.384Z,64.21
2023-02-04T14:19:37.718Z,64.84
2023-02-04T14:22:05.109Z,65.47
2023-02-04T14:27:17.227Z,66.45
2023-02-04T14:29:44.557Z,66.11
2023-02-04T14:32:11.918Z,65.61
2023-02-04T14:34:39.178Z,63.78
2023-02-04T14:37:06.553Z,63.94
2023-02-04T14:39:33.861Z,61.59
2023-02-04T14:42:04.436Z,60.80
2023-02-04T14:44:35.351Z,61.84
2023-02-04T14:47:02.767Z,62.48
2023-02-04T14:49:30.385Z,63.32
2023-02-04T14:51:57.778Z,63.79
2023-02-04T14:54:25.101Z,64.51
2023-02-04T14:56:52.631Z,64.59
2023-02-04T14:59:19.971Z,66.10
2023-02-04T15:01:47.321Z,66.34
2023-02-04T15:04:14.685Z,67.90
2023-02-04T15:06:42.068Z,70.07
2023-02-04T15:09:09.571Z,71.32
2023-02-04T15:11:37.153Z,72.03
2023-02-04T15:14:04.959Z,72.90
2023-02-04T15:16:32.439Z,73.60
2023-02-04T15:19:05.664Z,79.31
2023-02-04T15:21:33.108Z,81.78
2023-02-04T15:24:00.572Z,84.70
2023-02-04T15:26:31.016Z,86.84
2023-02-04T15:28:58.479Z,89.24
2023-02-04T15:31:27.264Z,91.66
2023-02-04T15:33:54.676Z,94.85
2023-02-04T15:36:22.242Z,95.46
2023-02-04T15:38:49.620Z,96.29
2023-02-04T15:41:16.985Z,100.00
2023-02-04T15:43:44.553Z,100.00
2023-02-04T15:46:12.003Z,100.00
2023-02-04T15:48:39.392Z,100.00
2023-02-04T15:51:06.717Z,100.00
2023-02-04T15:53:35.105Z,100.00
2023-02-04T15:56:02.405Z,100.00
2023-02-04T15:58:29.709Z,100.00
2023-02-04T16:00:57.482Z,100.00
2023-02-04T16:03:24.928Z,100.00
2023-02-04T16:05:52.250Z,100.00
2023-02-04T16:08:19.561Z,100.00
2023-02-04T16:10:47.161Z,100.00
2023-02-04T16:13:14.659Z,100.00
2023-02-04T16:15:41.989Z,100.00
2023-02-04T16:18:09.344Z,100.00
2023-02-04T16:20:37.556Z,100.00
2023-02-04T16:23:07.165Z,100.00
2023-02-04T16:25:34.944Z,100.00
2023-02-04T16:28:03.818Z,100.00
2023-02-04T16:30:31.174Z,100.00
2023-02-04T16:32:58.572Z,100.00
2023-02-04T16:35:27.119Z,100.00
2023-02-04T16:37:54.453Z,100.00
2023-02-04T16:40:21.789Z,100.00
2023-02-04T16:42:49.221Z,100.00
2023-02-04T16:45:19.654Z,100.00
2023-02-04T16:47:47.032Z,100.00
2023-02-04T16:50:14.439Z,100.00
2023-02-04T16:52:41.856Z,100.00
2023-02-04T16:55:09.241Z,100.00
2023-02-04T16:57:36.652Z,100.00
2023-02-04T17:00:04.661Z,100.00
2023-02-04T17:02:37.082Z,100.00
2023-02-04T17:05:05.770Z,100.00
2023-02-04T17:07:33.401Z,100.00
2023-02-04T17:10:00.891Z,100.00
2023-02-04T17:12:28.345Z,100.00
2023-02-04T17:14:55.675Z,100.00
2023-02-04T17:17:23.045Z,100.00
2023-02-04T17:19:50.630Z,97.81
2023-02-04T17:22:18.063Z,96.49
2023-02-04T17:24:45.411Z,95.27
2023-02-04T17:27:13.027Z,95.17
2023-02-04T17:29:40.325Z,93.88
2023-02-04T17:32:08.678Z,92.69
2023-02-04T17:34:36.048Z,91.31
2023-02-04T17:37:03.394Z,90.64
2023-02-04T17:39:31.124Z,88.58
2023-02-04T17:41:58.792Z,86.82
2023-02-04T17:44:27.700Z,84.61
2023-02-04T17:46:55.234Z,84.26
2023-02-04T17:49:22.706Z,83.28
2023-02-04T17:51:50.925Z,81.33
2023-02-04T17:54:18.269Z,81.07
2023-02-04T17:56:45.541Z,78.47
2023-02-04T17:59:13.115Z,78.62
2023-02-04T18:01:41.570Z,77.93
2023-02-04T18:04:12.977Z,77.32
2023-02-04T18:06:40.424Z,76.49
2023-02-04T18:09:26.998Z,74.80
2023-02-04T18:11:54.309Z,73.68
2023-02-04T18:14:27.847Z,73.04
2023-02-04T18:16:58.482Z,73.01
2023-02-04T18:19:29.211Z,72.99
2023-02-04T18:21:58.608Z,72.70
2023-02-04T18:24:32.492Z,71.99
2023-02-04T18:27:02.192Z,72.80
2023-02-04T18:29:37.383Z,72.16
2023-02-04T18:32:20.434Z,72.65
2023-02-04T18:34:52.986Z,73.01
2023-02-04T18:37:42.563Z,73.89
2023-02-04T18:40:09.907Z,74.63
2023-02-04T18:42:39.607Z,74.98
2023-02-04T18:45:16.359Z,75.30
2023-02-04T18:47:44.021Z,75.60
2023-02-04T18:50:33.162Z,76.55
2023-02-04T18:53:19.491Z,75.92
2023-02-04T18:55:49.716Z,76.21
2023-02-04T18:58:17.223Z,76.98
2023-02-04T19:01:17.028Z,77.63
2023-02-04T19:04:03.384Z,78.04
2023-02-04T19:06:40.024Z,78.14
2023-02-04T19:09:10.212Z,78.12
2023-02-04T19:11:38.900Z,77.90
2023-02-04T19:14:13.199Z,77.55
2023-02-04T19:16:41.460Z,78.03
2023-02-04T19:19:35.732Z,78.05
2023-02-04T19:22:35.312Z,77.42
2023-02-04T19:25:22.542Z,77.69
2023-02-04T19:27:58.191Z,77.66
2023-02-04T19:30:28.322Z,76.88
2023-02-04T19:33:10.100Z,76.58
2023-02-04T19:35:43.239Z,76.42
2023-02-04T19:38:45.043Z,75.96
2023-02-04T19:41:28.235Z,75.02
2023-02-04T19:44:14.166Z,75.29
2023-02-04T19:46:42.436Z,74.60
2023-02-04T19:49:21.937Z,74.08
2023-02-04T19:51:53.794Z,74.95
2023-02-04T19:54:24.253Z,74.90
2023-02-04T19:56:55.153Z,74.65
2023-02-04T19:59:33.492Z,75.04
2023-02-04T20:02:06.733Z,75.77
2023-02-04T20:04:42.546Z,75.68
2023-02-04T20:07:19.843Z,75.59
2023-02-04T20:09:47.624Z,76.69
2023-02-04T20:12:16.599Z,77.01
2023-02-04T20:14:56.007Z,77.42
2023-02-04T20:17:46.524Z,76.97
2023-02-04T20:20:26.356Z,77.35
2023-02-04T20:23:21.548Z,76.84
2023-02-04T20:25:50.437Z,77.72
2023-02-04T20:28:23.762Z,78.32
2023-02-04T20:30:52.152Z,78.68
2023-02-04T20:33:35.387Z,80.12
2023-02-04T20:36:41.088Z,80.96
2023-02-04T20:39:26.829Z,82.78
2023-02-04T20:41:54.631Z,83.11
2023-02-04T20:44:35.757Z,82.14
2023-02-04T20:47:24.856Z,79.76
2023-02-04T20:49:58.718Z,79.43
2023-02-04T20:52:41.223Z,78.40
2023-02-04T20:56:03.786Z,80.03
2023-02-04T20:58:35.896Z,78.15
2023-02-04T21:01:03.740Z,76.42
2023-02-04T21:03:37.724Z,76.57
2023-02-04T21:06:21.237Z,77.22
2023-02-04T21:08:51.165Z,77.91
2023-02-04T21:11:19.030Z,77.96
2023-02-04T21:13:47.609Z,78.65
2023-02-04T21:16:15.895Z,78.93
2023-02-04T21:18:43.311Z,80.90
2023-02-04T21:21:10.689Z,81.10
2023-02-04T21:23:38.250Z,80.82
2023-02-04T21:26:06.394Z,81.25
2023-02-04T21:28:34.052Z,81.09
2023-02-04T21:31:01.758Z,81.44
2023-02-04T21:33:29.134Z,80.85
2023-02-04T21:35:56.451Z,81.20
2023-02-04T21:38:23.858Z,81.88
2023-02-04T21:40:51.354Z,83.25
2023-02-04T21:43:18.780Z,83.20
2023-02-04T21:45:46.110Z,83.87
2023-02-04T21:48:14.750Z,83.93
2023-02-04T21:50:42.203Z,84.16
2023-02-04T21:53:09.855Z,84.23
2023-02-04T21:55:37.980Z,84.61
2023-02-04T21:58:05.862Z,83.35
2023-02-04T22:00:33.802Z,82.33
2023-02-04T22:03:01.489Z,80.44
2023-02-04T22:05:32.425Z,79.03
2023-02-04T22:08:00.065Z,77.95
2023-02-04T22:10:27.391Z,77.10
2023-02-04T22:12:54.759Z,77.87
2023-02-04T22:15:22.637Z,77.58
2023-02-04T22:17:53.676Z,77.46
2023-02-04T22:20:23.731Z,78.04
2023-02-04T22:22:55.174Z,78.13
2023-02-04T22:25:22.714Z,78.31
2023-02-04T22:27:50.347Z,78.79
2023-02-04T22:30:18.228Z,79.12
2023-02-04T22:32:45.736Z,78.67
2023-02-04T22:35:14.166Z,78.15
2023-02-04T22:37:42.354Z,78.05
2023-02-04T22:40:13.157Z,76.24
2023-02-04T22:42:40.878Z,75.96
2023-02-04T22:45:11.644Z,76.17
2023-02-04T22:47:39.148Z,75.47
2023-02-04T22:50:06.858Z,75.22
2023-02-04T22:52:34.305Z,74.98
2023-02-04T22:55:01.675Z,74.60
2023-02-04T22:57:29.083Z,74.95
2023-02-04T22:59:56.375Z,75.62
2023-02-04T23:02:23.689Z,76.59
2023-02-04T23:04:51.252Z,77.78
2023-02-04T23:07:19.071Z,79.26
2023-02-04T23:09:47.671Z,80.96
2023-02-04T23:12:15.086Z,81.02
2023-02-04T23:14:44.916Z,82.02
2023-02-04T23:17:13.434Z,82.46
2023-02-04T23:19:40.979Z,83.20
2023-02-04T23:22:10.375Z,84.94
2023-02-04T23:24:38.712Z,84.65
2023-02-04T23:27:06.771Z,85.24
2023-02-04T23:29:35.364Z,85.79
2023-02-04T23:32:03.541Z,86.51
2023-02-04T23:34:31.273Z,86.91
2023-02-04T23:36:58.620Z,87.24
2023-02-04T23:39:26.173Z,87.23
2023-02-04T23:41:53.658Z,87.83
2023-02-04T23:44:21.129Z,88.06
2023-02-04T23:46:48.580Z,87.77
2023-02-04T23:49:16.017Z,87.88
2023-02-04T23:51:43.516Z,87.83
2023-02-04T23:54:10.930Z,87.33
2023-02-04T23:56:38.307Z,88.33
2023-02-04T23:59:06.006Z,87.66
